Hovedside
METAR-TAF:

METAR-TAF

Lufthavner :

Gran Canaria internasjonale lufthavn

Gran Canaria, Spania

breddegrad: 27-56N, lengdegrad: 015-23W, høyde over havet: 23 m

Gjeldene værobservasjon

Denne rapporten ble laget for 32 minutter siden, klokken 03:30 UTC
Vind 6 kt fra Nord-nordøst
Temperatur 23°C
Luftfuktighet 83%
Trykk 1018 hPa
Sikt 10 km eller mer
Spredte skyer i en høyde av 1500 ft

METAR: GCLP 200330Z 02006KT 9999 SCT015 23/20 Q1018 NOSIG

Tid: 05:02 (04:02 UTC)

Varsel

Denne rapporten ble laget for 2 timer og 2 minutter siden, klokken 02:00 UTC
Varsel gyldig fra 20. klokken 03 UTC til 21. klokken 03 UTC
Vind 15 kt fra Nord-nordøst
Sikt 10 km eller mer
Få skyer i en høyde av 2500 ft
Midlertidig
fra 20. klokken 12 UTC til 20. klokken 20 UTC
Vind 15 kt fra Nord-nordøst med vindkast opp mot 25 kt

TAF: GCLP 200200Z 2003/2103 02015KT 9999 FEW025 TX29/2014Z TN24/2005Z TEMPO 2012/2020 02015G25KT

Værobservasjoner og værvarsel for over 4000 flyplasser (METAR- og TAF-rapporter).

Tilgjengelige stasjoner er representert av de røde og gule prikkene på kartet.

Hold musepekeren over prikken for å se navnet på stasjonen.

Klikk så for å se værobservasjoner og -varsler.

For å forandre kartet kan du klikke på den grønne knappen med svart kryss for å zoome inn, på den grønne knappen med strek for å zoome ut, eller på de grønne pilene for å se tilstøtende kart.


METAR-TAF: